sensor_id;sensor_type;location;lat;lon;timestamp;pressure;altitude;pressure_sealevel;temperature;humidity
67803;BME280;54601;51.378;-1.342;2023-07-29T00:00:30;99279.14;;;22.82;38.28
67803;BME280;54601;51.378;-1.342;2023-07-29T00:02:56;99282.16;;;22.76;38.39
67803;BME280;54601;51.378;-1.342;2023-07-29T00:05:21;99279.56;;;22.77;38.42
67803;BME280;54601;51.378;-1.342;2023-07-29T00:07:46;99286.64;;;22.83;38.31
67803;BME280;54601;51.378;-1.342;2023-07-29T00:10:12;99282.27;;;22.83;38.38
67803;BME280;54601;51.378;-1.342;2023-07-29T00:12:37;99278.81;;;22.44;38.46
67803;BME280;54601;51.378;-1.342;2023-07-29T00:15:03;99275.32;;;22.69;38.44
67803;BME280;54601;51.378;-1.342;2023-07-29T00:17:28;99277.43;;;22.37;38.54
67803;BME280;54601;51.378;-1.342;2023-07-29T00:19:53;99274.04;;;22.57;38.61
67803;BME280;54601;51.378;-1.342;2023-07-29T00:22:19;99271.26;;;22.60;38.64
67803;BME280;54601;51.378;-1.342;2023-07-29T00:24:44;99273.12;;;22.70;38.54
67803;BME280;54601;51.378;-1.342;2023-07-29T00:27:09;99272.29;;;22.60;38.54
67803;BME280;54601;51.378;-1.342;2023-07-29T00:29:35;99277.92;;;22.33;38.62
67803;BME280;54601;51.378;-1.342;2023-07-29T00:32:00;99278.43;;;22.85;38.59
67803;BME280;54601;51.378;-1.342;2023-07-29T00:34:26;99279.75;;;22.84;38.54
67803;BME280;54601;51.378;-1.342;2023-07-29T00:36:51;99277.37;;;22.92;38.47
67803;BME280;54601;51.378;-1.342;2023-07-29T00:39:16;99272.18;;;22.51;38.69
67803;BME280;54601;51.378;-1.342;2023-07-29T00:41:42;99272.40;;;22.57;38.64
67803;BME280;54601;51.378;-1.342;2023-07-29T00:44:07;99271.10;;;22.77;38.66
67803;BME280;54601;51.378;-1.342;2023-07-29T00:46:34;99270.36;;;22.82;38.65
67803;BME280;54601;51.378;-1.342;2023-07-29T00:48:58;99268.63;;;22.45;38.70
67803;BME280;54601;51.378;-1.342;2023-07-29T00:51:23;99269.55;;;22.57;38.63
67803;BME280;54601;51.378;-1.342;2023-07-29T00:53:49;99270.03;;;22.85;38.60
67803;BME280;54601;51.378;-1.342;2023-07-29T00:56:14;99265.34;;;22.60;38.83
67803;BME280;54601;51.378;-1.342;2023-07-29T00:58:40;99260.36;;;22.44;38.74
67803;BME280;54601;51.378;-1.342;2023-07-29T01:01:05;99258.87;;;22.61;38.85
67803;BME280;54601;51.378;-1.342;2023-07-29T01:03:30;99259.87;;;22.46;38.74
67803;BME280;54601;51.378;-1.342;2023-07-29T01:06:05;99261.60;;;22.50;38.68
67803;BME280;54601;51.378;-1.342;2023-07-29T01:08:27;99269.01;;;22.45;38.75
67803;BME280;54601;51.378;-1.342;2023-07-29T01:10:54;99267.45;;;22.83;38.56
67803;BME280;54601;51.378;-1.342;2023-07-29T01:13:19;99263.87;;;22.52;38.62
67803;BME280;54601;51.378;-1.342;2023-07-29T01:15:43;99260.12;;;22.94;38.38
67803;BME280;54601;51.378;-1.342;2023-07-29T01:18:06;99257.48;;;22.68;38.41
67803;BME280;54601;51.378;-1.342;2023-07-29T01:20:33;99249.05;;;22.67;38.74
67803;BME280;54601;51.378;-1.342;2023-07-29T01:22:54;99243.26;;;22.06;38.88
67803;BME280;54601;51.378;-1.342;2023-07-29T01:25:19;99242.80;;;21.94;39.07
67803;BME280;54601;51.378;-1.342;2023-07-29T01:27:48;99245.41;;;22.22;39.03
67803;BME280;54601;51.378;-1.342;2023-07-29T01:30:10;99242.45;;;22.44;39.02
67803;BME280;54601;51.378;-1.342;2023-07-29T01:32:39;99235.14;;;22.45;38.96
67803;BME280;54601;51.378;-1.342;2023-07-29T01:35:03;99232.69;;;21.99;38.94
67803;BME280;54601;51.378;-1.342;2023-07-29T01:37:27;99228.00;;;22.24;39.00
67803;BME280;54601;51.378;-1.342;2023-07-29T01:39:52;99230.09;;;22.18;39.02
67803;BME280;54601;51.378;-1.342;2023-07-29T01:42:17;99231.76;;;22.45;38.95
67803;BME280;54601;51.378;-1.342;2023-07-29T01:44:42;99231.52;;;22.37;38.76
67803;BME280;54601;51.378;-1.342;2023-07-29T01:47:07;99237.68;;;22.26;38.91
67803;BME280;54601;51.378;-1.342;2023-07-29T01:49:33;99236.92;;;22.32;38.74
67803;BME280;54601;51.378;-1.342;2023-07-29T01:51:58;99236.64;;;22.33;39.08
67803;BME280;54601;51.378;-1.342;2023-07-29T01:54:23;99233.21;;;22.29;39.12
67803;BME280;54601;51.378;-1.342;2023-07-29T01:56:49;99230.37;;;22.22;38.98
67803;BME280;54601;51.378;-1.342;2023-07-29T01:59:14;99226.82;;;22.34;38.81
67803;BME280;54601;51.378;-1.342;2023-07-29T02:01:39;99226.05;;;22.35;39.01
67803;BME280;54601;51.378;-1.342;2023-07-29T02:04:05;99227.83;;;22.11;39.08
67803;BME280;54601;51.378;-1.342;2023-07-29T02:06:30;99230.28;;;22.25;39.20
67803;BME280;54601;51.378;-1.342;2023-07-29T02:08:55;99227.91;;;22.29;39.12
67803;BME280;54601;51.378;-1.342;2023-07-29T02:11:21;99229.00;;;22.19;39.23
67803;BME280;54601;51.378;-1.342;2023-07-29T02:13:46;99233.28;;;22.13;39.29
67803;BME280;54601;51.378;-1.342;2023-07-29T02:16:12;99235.92;;;22.26;39.13
67803;BME280;54601;51.378;-1.342;2023-07-29T02:18:37;99240.46;;;22.26;39.11
67803;BME280;54601;51.378;-1.342;2023-07-29T02:21:02;99235.42;;;22.22;39.20
67803;BME280;54601;51.378;-1.342;2023-07-29T02:23:28;99234.73;;;22.28;39.11
67803;BME280;54601;51.378;-1.342;2023-07-29T02:25:53;99235.18;;;22.18;39.20
67803;BME280;54601;51.378;-1.342;2023-07-29T02:28:19;99232.96;;;22.15;39.21
67803;BME280;54601;51.378;-1.342;2023-07-29T02:30:44;99225.12;;;21.98;39.15
67803;BME280;54601;51.378;-1.342;2023-07-29T02:33:09;99225.19;;;22.00;39.13
67803;BME280;54601;51.378;-1.342;2023-07-29T02:35:35;99222.29;;;22.06;39.33
67803;BME280;54601;51.378;-1.342;2023-07-29T02:38:00;99222.80;;;22.17;39.14
67803;BME280;54601;51.378;-1.342;2023-07-29T02:40:26;99222.21;;;21.85;39.28
67803;BME280;54601;51.378;-1.342;2023-07-29T02:42:51;99224.07;;;22.17;39.16
67803;BME280;54601;51.378;-1.342;2023-07-29T02:45:16;99220.44;;;22.22;39.13
67803;BME280;54601;51.378;-1.342;2023-07-29T02:47:42;99222.08;;;22.04;39.31
67803;BME280;54601;51.378;-1.342;2023-07-29T02:50:08;99219.41;;;22.00;39.37
67803;BME280;54601;51.378;-1.342;2023-07-29T02:52:32;99219.38;;;22.05;39.27
67803;BME280;54601;51.378;-1.342;2023-07-29T02:54:58;99218.66;;;22.06;39.31
67803;BME280;54601;51.378;-1.342;2023-07-29T02:57:23;99217.45;;;21.85;39.30
67803;BME280;54601;51.378;-1.342;2023-07-29T02:59:49;99215.76;;;22.14;39.20
67803;BME280;54601;51.378;-1.342;2023-07-29T03:02:14;99217.29;;;22.39;38.84
67803;BME280;54601;51.378;-1.342;2023-07-29T03:04:39;99213.13;;;22.14;39.10
67803;BME280;54601;51.378;-1.342;2023-07-29T03:07:05;99213.80;;;22.04;39.26
67803;BME280;54601;51.378;-1.342;2023-07-29T03:09:30;99211.86;;;21.92;39.44
67803;BME280;54601;51.378;-1.342;2023-07-29T03:11:56;99207.47;;;21.91;39.43
67803;BME280;54601;51.378;-1.342;2023-07-29T03:14:21;99204.72;;;21.97;39.35
67803;BME280;54601;51.378;-1.342;2023-07-29T03:16:46;99210.02;;;22.04;39.24
67803;BME280;54601;51.378;-1.342;2023-07-29T03:19:12;99203.85;;;22.23;38.98
67803;BME280;54601;51.378;-1.342;2023-07-29T03:21:37;99202.19;;;22.01;39.25
67803;BME280;54601;51.378;-1.342;2023-07-29T03:24:03;99202.67;;;21.57;39.21
67803;BME280;54601;51.378;-1.342;2023-07-29T03:26:28;99206.23;;;22.05;39.17
67803;BME280;54601;51.378;-1.342;2023-07-29T03:28:53;99206.70;;;22.13;39.15
67803;BME280;54601;51.378;-1.342;2023-07-29T03:31:19;99206.02;;;22.00;39.29
67803;BME280;54601;51.378;-1.342;2023-07-29T03:33:44;99199.16;;;21.97;39.28
67803;BME280;54601;51.378;-1.342;2023-07-29T03:36:10;99196.05;;;21.83;39.21
67803;BME280;54601;51.378;-1.342;2023-07-29T03:38:35;99203.84;;;22.14;39.09
67803;BME280;54601;51.378;-1.342;2023-07-29T03:41:00;99207.50;;;21.62;39.46
67803;BME280;54601;51.378;-1.342;2023-07-29T03:43:26;99209.82;;;21.95;39.33
67803;BME280;54601;51.378;-1.342;2023-07-29T03:45:51;99210.43;;;21.84;39.44
67803;BME280;54601;51.378;-1.342;2023-07-29T03:48:17;99211.51;;;21.95;39.30
67803;BME280;54601;51.378;-1.342;2023-07-29T03:50:42;99208.20;;;22.04;39.16
67803;BME280;54601;51.378;-1.342;2023-07-29T03:53:07;99208.73;;;21.99;39.20
67803;BME280;54601;51.378;-1.342;2023-07-29T03:55:33;99213.17;;;22.03;39.17
67803;BME280;54601;51.378;-1.342;2023-07-29T03:57:59;99208.67;;;22.01;39.21
67803;BME280;54601;51.378;-1.342;2023-07-29T04:00:24;99210.81;;;21.89;39.34
67803;BME280;54601;51.378;-1.342;2023-07-29T04:02:49;99210.57;;;21.76;39.50
67803;BME280;54601;51.378;-1.342;2023-07-29T04:05:14;99213.26;;;21.85;39.42
67803;BME280;54601;51.378;-1.342;2023-07-29T04:07:40;99215.07;;;21.71;39.61
67803;BME280;54601;51.378;-1.342;2023-07-29T04:10:06;99211.14;;;21.57;39.75
67803;BME280;54601;51.378;-1.342;2023-07-29T04:12:31;99207.50;;;21.69;39.60
67803;BME280;54601;51.378;-1.342;2023-07-29T04:14:56;99209.94;;;21.63;39.70
67803;BME280;54601;51.378;-1.342;2023-07-29T04:17:22;99218.56;;;21.73;39.52
67803;BME280;54601;51.378;-1.342;2023-07-29T04:19:47;99217.29;;;21.72;39.49
67803;BME280;54601;51.378;-1.342;2023-07-29T04:22:12;99213.83;;;21.67;39.60
67803;BME280;54601;51.378;-1.342;2023-07-29T04:24:38;99212.09;;;21.62;39.64
67803;BME280;54601;51.378;-1.342;2023-07-29T04:27:03;99205.08;;;21.64;39.60
67803;BME280;54601;51.378;-1.342;2023-07-29T04:29:28;99201.95;;;21.57;39.71
67803;BME280;54601;51.378;-1.342;2023-07-29T04:31:54;99200.21;;;21.72;39.55
67803;BME280;54601;51.378;-1.342;2023-07-29T04:34:19;99199.46;;;21.58;39.69
67803;BME280;54601;51.378;-1.342;2023-07-29T04:36:44;99203.12;;;21.64;39.60
67803;BME280;54601;51.378;-1.342;2023-07-29T04:39:10;99209.49;;;21.54;39.72
67803;BME280;54601;51.378;-1.342;2023-07-29T04:41:35;99212.01;;;21.47;39.77
67803;BME280;54601;51.378;-1.342;2023-07-29T04:44:01;99215.34;;;21.50;39.71
67803;BME280;54601;51.378;-1.342;2023-07-29T04:46:26;99222.36;;;21.57;39.62
67803;BME280;54601;51.378;-1.342;2023-07-29T04:48:51;99227.38;;;21.71;39.44
67803;BME280;54601;51.378;-1.342;2023-07-29T04:51:17;99230.00;;;21.66;39.49
67803;BME280;54601;51.378;-1.342;2023-07-29T04:53:42;99233.58;;;21.69;39.48
67803;BME280;54601;51.378;-1.342;2023-07-29T04:56:07;99229.81;;;21.69;39.43
67803;BME280;54601;51.378;-1.342;2023-07-29T04:58:33;99225.74;;;21.43;39.50
67803;BME280;54601;51.378;-1.342;2023-07-29T05:00:58;99224.44;;;21.53;39.65
67803;BME280;54601;51.378;-1.342;2023-07-29T05:03:24;99227.46;;;21.84;39.24
67803;BME280;54601;51.378;-1.342;2023-07-29T05:05:49;99228.81;;;21.39;39.53
67803;BME280;54601;51.378;-1.342;2023-07-29T05:08:15;99224.26;;;21.63;39.52
67803;BME280;54601;51.378;-1.342;2023-07-29T05:10:40;99221.66;;;21.46;39.74
67803;BME280;54601;51.378;-1.342;2023-07-29T05:13:05;99218.65;;;21.67;39.46
67803;BME280;54601;51.378;-1.342;2023-07-29T05:15:31;99220.41;;;21.58;39.51
67803;BME280;54601;51.378;-1.342;2023-07-29T05:17:56;99221.76;;;21.54;39.61
67803;BME280;54601;51.378;-1.342;2023-07-29T05:20:22;99222.04;;;21.48;39.34
67803;BME280;54601;51.378;-1.342;2023-07-29T05:22:47;99227.98;;;21.78;39.25
67803;BME280;54601;51.378;-1.342;2023-07-29T05:25:12;99225.04;;;21.85;39.17
67803;BME280;54601;51.378;-1.342;2023-07-29T05:27:38;99225.87;;;21.72;39.34
67803;BME280;54601;51.378;-1.342;2023-07-29T05:30:04;99223.98;;;22.02;38.91
67803;BME280;54601;51.378;-1.342;2023-07-29T05:32:28;99230.32;;;21.70;39.26
67803;BME280;54601;51.378;-1.342;2023-07-29T05:34:54;99232.47;;;21.79;39.16
67803;BME280;54601;51.378;-1.342;2023-07-29T05:37:19;99235.30;;;21.74;39.22
67803;BME280;54601;51.378;-1.342;2023-07-29T05:39:45;99232.54;;;22.14;39.06
67803;BME280;54601;51.378;-1.342;2023-07-29T05:42:10;99232.44;;;21.60;39.38
67803;BME280;54601;51.378;-1.342;2023-07-29T05:44:35;99230.38;;;21.76;39.18
67803;BME280;54601;51.378;-1.342;2023-07-29T05:47:01;99227.15;;;21.99;38.91
67803;BME280;54601;51.378;-1.342;2023-07-29T05:49:26;99227.60;;;21.96;38.93
67803;BME280;54601;51.378;-1.342;2023-07-29T05:51:52;99233.28;;;21.79;39.13
67803;BME280;54601;51.378;-1.342;2023-07-29T05:54:18;99233.38;;;21.72;39.24
67803;BME280;54601;51.378;-1.342;2023-07-29T05:56:42;99231.35;;;21.87;39.02
67803;BME280;54601;51.378;-1.342;2023-07-29T05:59:08;99233.62;;;21.67;39.29
67803;BME280;54601;51.378;-1.342;2023-07-29T06:01:33;99236.57;;;21.72;39.21
67803;BME280;54601;51.378;-1.342;2023-07-29T06:03:58;99240.05;;;21.67;39.34
67803;BME280;54601;51.378;-1.342;2023-07-29T06:06:24;99236.71;;;21.42;39.33
67803;BME280;54601;51.378;-1.342;2023-07-29T06:08:50;99236.30;;;21.87;39.02
67803;BME280;54601;51.378;-1.342;2023-07-29T06:11:14;99236.56;;;21.87;39.03
67803;BME280;54601;51.378;-1.342;2023-07-29T06:13:40;99237.42;;;21.77;39.16
67803;BME280;54601;51.378;-1.342;2023-07-29T06:16:05;99234.12;;;21.59;39.04
67803;BME280;54601;51.378;-1.342;2023-07-29T06:18:31;99233.29;;;21.68;38.92
67803;BME280;54601;51.378;-1.342;2023-07-29T06:20:56;99232.91;;;21.88;38.94
67803;BME280;54601;51.378;-1.342;2023-07-29T06:23:21;99232.49;;;21.94;38.92
67803;BME280;54601;51.378;-1.342;2023-07-29T06:25:47;99231.87;;;21.97;38.81
67803;BME280;54601;51.378;-1.342;2023-07-29T06:28:12;99233.32;;;22.17;38.54
67803;BME280;54601;51.378;-1.342;2023-07-29T06:30:38;99232.17;;;22.16;38.49
67803;BME280;54601;51.378;-1.342;2023-07-29T06:33:03;99229.25;;;22.43;38.12
67803;BME280;54601;51.378;-1.342;2023-07-29T06:35:29;99231.24;;;22.84;37.26
67803;BME280;54601;51.378;-1.342;2023-07-29T06:37:54;99230.98;;;23.77;36.49
67803;BME280;54601;51.378;-1.342;2023-07-29T06:40:19;99233.14;;;23.80;36.51
67803;BME280;54601;51.378;-1.342;2023-07-29T06:42:45;99236.76;;;24.01;36.16
67803;BME280;54601;51.378;-1.342;2023-07-29T06:45:10;99237.83;;;23.89;36.08
67803;BME280;54601;51.378;-1.342;2023-07-29T06:47:35;99239.72;;;24.12;36.10
67803;BME280;54601;51.378;-1.342;2023-07-29T06:50:01;99243.31;;;24.00;35.90
67803;BME280;54601;51.378;-1.342;2023-07-29T06:52:26;99237.77;;;24.01;35.80
67803;BME280;54601;51.378;-1.342;2023-07-29T06:54:52;99236.15;;;24.36;35.71
67803;BME280;54601;51.378;-1.342;2023-07-29T06:57:17;99234.08;;;24.81;35.56
67803;BME280;54601;51.378;-1.342;2023-07-29T06:59:42;99234.58;;;24.39;35.86
67803;BME280;54601;51.378;-1.342;2023-07-29T07:02:08;99236.36;;;24.23;35.77
67803;BME280;54601;51.378;-1.342;2023-07-29T07:04:33;99237.61;;;24.71;35.82
67803;BME280;54601;51.378;-1.342;2023-07-29T07:06:59;99237.31;;;24.71;35.89
67803;BME280;54601;51.378;-1.342;2023-07-29T07:09:24;99242.43;;;24.74;35.74
67803;BME280;54601;51.378;-1.342;2023-07-29T07:11:49;99240.73;;;24.28;35.81
67803;BME280;54601;51.378;-1.342;2023-07-29T07:14:15;99241.15;;;24.13;35.92
67803;BME280;54601;51.378;-1.342;2023-07-29T07:16:40;99242.54;;;24.51;35.71
67803;BME280;54601;51.378;-1.342;2023-07-29T07:19:06;99237.75;;;24.55;35.69
67803;BME280;54601;51.378;-1.342;2023-07-29T07:21:31;99241.64;;;24.42;35.85
67803;BME280;54601;51.378;-1.342;2023-07-29T07:23:56;99235.03;;;24.56;35.67
67803;BME280;54601;51.378;-1.342;2023-07-29T07:26:22;99241.64;;;24.30;35.69
67803;BME280;54601;51.378;-1.342;2023-07-29T07:28:47;99240.07;;;24.77;35.59
67803;BME280;54601;51.378;-1.342;2023-07-29T07:31:12;99241.53;;;24.49;35.64
67803;BME280;54601;51.378;-1.342;2023-07-29T07:33:38;99243.57;;;24.85;35.66
67803;BME280;54601;51.378;-1.342;2023-07-29T07:36:04;99239.69;;;25.03;35.50
67803;BME280;54601;51.378;-1.342;2023-07-29T07:38:29;99239.69;;;25.01;35.56
67803;BME280;54601;51.378;-1.342;2023-07-29T07:40:54;99237.01;;;24.82;35.59
67803;BME280;54601;51.378;-1.342;2023-07-29T07:43:19;99237.59;;;24.94;35.48
67803;BME280;54601;51.378;-1.342;2023-07-29T07:45:45;99239.36;;;24.98;35.52
67803;BME280;54601;51.378;-1.342;2023-07-29T07:48:10;99236.33;;;25.02;35.52
67803;BME280;54601;51.378;-1.342;2023-07-29T07:50:35;99243.36;;;25.10;35.49
67803;BME280;54601;51.378;-1.342;2023-07-29T07:53:01;99240.95;;;25.52;35.35
67803;BME280;54601;51.378;-1.342;2023-07-29T07:55:26;99240.80;;;25.28;35.28
67803;BME280;54601;51.378;-1.342;2023-07-29T07:57:51;99243.56;;;25.19;35.46
67803;BME280;54601;51.378;-1.342;2023-07-29T08:00:17;99246.39;;;25.33;35.28
67803;BME280;54601;51.378;-1.342;2023-07-29T08:02:43;99244.40;;;25.55;35.21
67803;BME280;54601;51.378;-1.342;2023-07-29T08:05:08;99250.08;;;25.35;35.24
67803;BME280;54601;51.378;-1.342;2023-07-29T08:07:33;99256.52;;;25.36;35.26
67803;BME280;54601;51.378;-1.342;2023-07-29T08:09:58;99256.16;;;25.30;35.29
67803;BME280;54601;51.378;-1.342;2023-07-29T08:12:23;99262.80;;;25.46;35.12
67803;BME280;54601;51.378;-1.342;2023-07-29T08:14:49;99263.03;;;25.51;35.09
67803;BME280;54601;51.378;-1.342;2023-07-29T08:17:14;99261.60;;;25.38;35.04
67803;BME280;54601;51.378;-1.342;2023-07-29T08:19:40;99266.21;;;25.46;34.88
67803;BME280;54601;51.378;-1.342;2023-07-29T08:22:05;99258.68;;;25.35;35.07
67803;BME280;54601;51.378;-1.342;2023-07-29T08:24:30;99260.71;;;25.68;34.98
67803;BME280;54601;51.378;-1.342;2023-07-29T08:26:56;99260.95;;;25.78;34.91
67803;BME280;54601;51.378;-1.342;2023-07-29T08:29:21;99258.55;;;25.91;34.73
67803;BME280;54601;51.378;-1.342;2023-07-29T08:31:46;99262.85;;;25.95;34.77
67803;BME280;54601;51.378;-1.342;2023-07-29T08:34:12;99264.35;;;25.84;34.66
67803;BME280;54601;51.378;-1.342;2023-07-29T08:36:37;99265.96;;;25.98;34.67
67803;BME280;54601;51.378;-1.342;2023-07-29T08:39:03;99264.21;;;25.53;34.68
67803;BME280;54601;51.378;-1.342;2023-07-29T08:41:32;99266.53;;;25.67;34.68
67803;BME280;54601;51.378;-1.342;2023-07-29T08:44:01;99269.74;;;25.97;34.55
67803;BME280;54601;51.378;-1.342;2023-07-29T08:46:19;99266.06;;;25.84;34.83
67803;BME280;54601;51.378;-1.342;2023-07-29T08:48:44;99268.39;;;25.41;34.67
67803;BME280;54601;51.378;-1.342;2023-07-29T08:51:10;99265.55;;;25.79;34.69
67803;BME280;54601;51.378;-1.342;2023-07-29T08:53:35;99268.44;;;25.39;34.63
67803;BME280;54601;51.378;-1.342;2023-07-29T08:56:00;99271.59;;;26.01;34.44
67803;BME280;54601;51.378;-1.342;2023-07-29T08:58:25;99268.75;;;25.46;34.67
67803;BME280;54601;51.378;-1.342;2023-07-29T09:00:51;99265.58;;;25.80;34.48
67803;BME280;54601;51.378;-1.342;2023-07-29T09:03:16;99267.95;;;26.02;34.59
67803;BME280;54601;51.378;-1.342;2023-07-29T09:05:41;99267.26;;;25.64;34.48
67803;BME280;54601;51.378;-1.342;2023-07-29T09:08:07;99269.16;;;25.59;34.38
67803;BME280;54601;51.378;-1.342;2023-07-29T09:10:35;99266.82;;;25.89;34.53
67803;BME280;54601;51.378;-1.342;2023-07-29T09:12:57;99268.28;;;25.70;34.58
67803;BME280;54601;51.378;-1.342;2023-07-29T09:15:27;99266.43;;;26.04;34.44
67803;BME280;54601;51.378;-1.342;2023-07-29T09:17:48;99265.51;;;25.67;34.67
67803;BME280;54601;51.378;-1.342;2023-07-29T09:20:13;99266.35;;;25.67;34.42
67803;BME280;54601;51.378;-1.342;2023-07-29T09:22:39;99266.86;;;25.89;34.41
67803;BME280;54601;51.378;-1.342;2023-07-29T09:25:04;99265.60;;;25.57;34.44
67803;BME280;54601;51.378;-1.342;2023-07-29T09:27:29;99265.42;;;25.58;34.40
67803;BME280;54601;51.378;-1.342;2023-07-29T09:29:55;99271.96;;;25.57;34.41
67803;BME280;54601;51.378;-1.342;2023-07-29T09:32:21;99271.78;;;25.50;34.48
67803;BME280;54601;51.378;-1.342;2023-07-29T09:34:45;99278.08;;;25.77;34.44
67803;BME280;54601;51.378;-1.342;2023-07-29T09:37:16;99276.65;;;25.61;34.60
67803;BME280;54601;51.378;-1.342;2023-07-29T09:39:36;99273.67;;;25.66;34.50
67803;BME280;54601;51.378;-1.342;2023-07-29T09:42:01;99281.10;;;25.88;34.50
67803;BME280;54601;51.378;-1.342;2023-07-29T09:44:26;99280.48;;;25.80;34.56
67803;BME280;54601;51.378;-1.342;2023-07-29T09:46:52;99279.39;;;25.88;34.46
67803;BME280;54601;51.378;-1.342;2023-07-29T09:49:17;99279.68;;;25.37;34.62
67803;BME280;54601;51.378;-1.342;2023-07-29T09:51:43;99280.12;;;25.39;34.55
67803;BME280;54601;51.378;-1.342;2023-07-29T09:54:09;99283.88;;;25.73;34.43
67803;BME280;54601;51.378;-1.342;2023-07-29T09:56:33;99288.81;;;25.58;34.40
67803;BME280;54601;51.378;-1.342;2023-07-29T09:58:59;99286.24;;;25.60;34.40
67803;BME280;54601;51.378;-1.342;2023-07-29T10:01:24;99282.31;;;25.98;34.22
67803;BME280;54601;51.378;-1.342;2023-07-29T10:03:49;99287.47;;;25.74;34.19
67803;BME280;54601;51.378;-1.342;2023-07-29T10:06:15;99294.67;;;25.75;34.06
67803;BME280;54601;51.378;-1.342;2023-07-29T10:08:40;99294.21;;;25.79;34.46
67803;BME280;54601;51.378;-1.342;2023-07-29T10:11:06;99297.80;;;25.61;34.35
67803;BME280;54601;51.378;-1.342;2023-07-29T10:13:31;99292.17;;;25.74;34.08
67803;BME280;54601;51.378;-1.342;2023-07-29T10:15:56;99296.05;;;25.80;34.20
67803;BME280;54601;51.378;-1.342;2023-07-29T10:18:22;99299.91;;;26.31;34.11
67803;BME280;54601;51.378;-1.342;2023-07-29T10:20:47;99296.80;;;25.70;34.18
67803;BME280;54601;51.378;-1.342;2023-07-29T10:23:13;99297.28;;;25.96;34.11
67803;BME280;54601;51.378;-1.342;2023-07-29T10:25:39;99296.71;;;25.91;34.28
67803;BME280;54601;51.378;-1.342;2023-07-29T10:28:05;99293.40;;;25.88;34.24
67803;BME280;54601;51.378;-1.342;2023-07-29T10:30:28;99298.08;;;25.65;34.27
67803;BME280;54601;51.378;-1.342;2023-07-29T10:32:53;99297.87;;;25.53;34.34
67803;BME280;54601;51.378;-1.342;2023-07-29T10:35:19;99298.60;;;25.93;34.38
67803;BME280;54601;51.378;-1.342;2023-07-29T10:37:44;99296.50;;;25.41;34.45
67803;BME280;54601;51.378;-1.342;2023-07-29T10:40:10;99301.53;;;25.52;34.30
67803;BME280;54601;51.378;-1.342;2023-07-29T10:42:35;99304.44;;;25.84;34.30
67803;BME280;54601;51.378;-1.342;2023-07-29T10:45:00;99299.95;;;25.67;34.15
67803;BME280;54601;51.378;-1.342;2023-07-29T10:47:27;99304.84;;;25.78;34.29
67803;BME280;54601;51.378;-1.342;2023-07-29T10:49:52;99308.21;;;25.60;34.21
67803;BME280;54601;51.378;-1.342;2023-07-29T10:52:27;99305.90;;;25.55;34.26
67803;BME280;54601;51.378;-1.342;2023-07-29T10:54:43;99303.50;;;25.52;34.33
67803;BME280;54601;51.378;-1.342;2023-07-29T10:57:06;99304.25;;;25.68;34.10
67803;BME280;54601;51.378;-1.342;2023-07-29T10:59:32;99306.62;;;25.65;34.12
67803;BME280;54601;51.378;-1.342;2023-07-29T11:01:58;99306.75;;;25.47;34.33
67803;BME280;54601;51.378;-1.342;2023-07-29T11:04:24;99307.06;;;25.58;34.22
67803;BME280;54601;51.378;-1.342;2023-07-29T11:11:39;99302.15;;;25.67;34.05
67803;BME280;54601;51.378;-1.342;2023-07-29T11:14:04;99302.99;;;25.60;34.16
67803;BME280;54601;51.378;-1.342;2023-07-29T11:16:30;99304.54;;;25.98;34.19
67803;BME280;54601;51.378;-1.342;2023-07-29T11:18:55;99298.23;;;25.54;34.25
67803;BME280;54601;51.378;-1.342;2023-07-29T11:21:20;99296.89;;;25.50;34.29
67803;BME280;54601;51.378;-1.342;2023-07-29T11:23:45;99295.15;;;25.83;34.15
67803;BME280;54601;51.378;-1.342;2023-07-29T11:26:10;99295.49;;;25.84;34.09
67803;BME280;54601;51.378;-1.342;2023-07-29T11:28:39;99293.04;;;25.50;34.28
67803;BME280;54601;51.378;-1.342;2023-07-29T11:31:01;99296.32;;;25.51;34.19
67803;BME280;54601;51.378;-1.342;2023-07-29T11:33:27;99298.22;;;25.47;34.22
67803;BME280;54601;51.378;-1.342;2023-07-29T11:35:52;99300.32;;;25.70;34.22
67803;BME280;54601;51.378;-1.342;2023-07-29T11:38:18;99297.26;;;25.64;34.31
67803;BME280;54601;51.378;-1.342;2023-07-29T11:40:43;99301.14;;;25.39;34.30
67803;BME280;54601;51.378;-1.342;2023-07-29T11:43:08;99301.17;;;25.48;34.20
67803;BME280;54601;51.378;-1.342;2023-07-29T11:45:33;99303.60;;;25.48;34.17
67803;BME280;54601;51.378;-1.342;2023-07-29T11:47:58;99308.25;;;25.58;34.30
67803;BME280;54601;51.378;-1.342;2023-07-29T11:50:24;99309.97;;;25.46;34.16
67803;BME280;54601;51.378;-1.342;2023-07-29T11:52:49;99313.76;;;25.46;34.20
67803;BME280;54601;51.378;-1.342;2023-07-29T11:55:15;99319.15;;;25.41;34.24
67803;BME280;54601;51.378;-1.342;2023-07-29T11:57:41;99316.40;;;25.41;34.22
67803;BME280;54601;51.378;-1.342;2023-07-29T12:00:07;99319.19;;;25.47;34.16
67803;BME280;54601;51.378;-1.342;2023-07-29T12:02:31;99321.59;;;25.50;34.06
67803;BME280;54601;51.378;-1.342;2023-07-29T12:04:57;99319.31;;;25.42;34.19
67803;BME280;54601;51.378;-1.342;2023-07-29T12:07:21;99313.86;;;25.47;34.16
67803;BME280;54601;51.378;-1.342;2023-07-29T12:09:47;99317.26;;;25.50;34.11
67803;BME280;54601;51.378;-1.342;2023-07-29T12:12:12;99315.39;;;25.47;34.14
67803;BME280;54601;51.378;-1.342;2023-07-29T12:14:37;99311.75;;;25.54;34.04
67803;BME280;54601;51.378;-1.342;2023-07-29T12:17:05;99315.33;;;25.91;34.13
67803;BME280;54601;51.378;-1.342;2023-07-29T12:19:32;99302.79;;;25.47;34.08
67803;BME280;54601;51.378;-1.342;2023-07-29T12:21:53;99305.48;;;25.62;33.97
67803;BME280;54601;51.378;-1.342;2023-07-29T12:24:19;99302.98;;;25.56;33.99
67803;BME280;54601;51.378;-1.342;2023-07-29T12:26:44;99304.64;;;25.47;34.03
67803;BME280;54601;51.378;-1.342;2023-07-29T12:29:13;99301.91;;;25.66;34.12
67803;BME280;54601;51.378;-1.342;2023-07-29T12:31:37;99301.96;;;25.51;34.04
67803;BME280;54601;51.378;-1.342;2023-07-29T12:34:00;99308.71;;;25.43;34.10
67803;BME280;54601;51.378;-1.342;2023-07-29T12:36:29;99306.10;;;25.45;34.06
67803;BME280;54601;51.378;-1.342;2023-07-29T12:38:51;99313.18;;;25.28;34.27
67803;BME280;54601;51.378;-1.342;2023-07-29T12:41:16;99317.04;;;25.34;34.20
67803;BME280;54601;51.378;-1.342;2023-07-29T12:43:41;99327.68;;;25.52;34.20